Time;durP1;ratioP1;P1;durP2;ratioP2;P2;SDS_P1;SDS_P2;PMS_P1;PMS_P2;Temp;Humidity;BMP_temperature;BMP_pressure;BME280_temperature;BME280_humidity;BME280_pressure;Samples;Min_cycle;Max_cycle;Signal;HPM_P1;HPM_P2
2022/11/14 00:02:02;;;;;;;76.03;39.27;;;7.30;99.90;;;;;;5045838;28;20267;-75
2022/11/14 00:04:28;;;;;;;77.77;39.03;;;7.30;99.90;;;;;;5048076;28;20204;-76
2022/11/14 00:06:54;;;;;;;79.03;40.97;;;7.40;99.90;;;;;;5044276;28;20755;-74
2022/11/14 00:09:23;;;;;;;75.83;39.90;;;7.30;99.90;;;;;;5045833;28;20199;-76
2022/11/14 00:11:48;;;;;;;80.80;40.13;;;7.30;99.90;;;;;;5044286;28;20718;-75
2022/11/14 00:14:14;;;;;;;71.87;39.03;;;7.30;99.90;;;;;;5045927;28;20286;-73
2022/11/14 00:16:40;;;;;;;72.67;39.20;;;7.20;99.90;;;;;;5048492;28;20587;-76
2022/11/14 00:19:05;;;;;;;75.73;38.47;;;7.30;99.90;;;;;;5040612;28;20310;-75
2022/11/14 00:21:31;;;;;;;76.70;40.23;;;7.20;99.90;;;;;;5049037;28;20219;-76
2022/11/14 00:23:56;;;;;;;80.20;40.47;;;7.20;99.90;;;;;;5045926;28;20556;-76
2022/11/14 00:26:22;;;;;;;73.30;38.97;;;7.20;99.90;;;;;;5049030;28;20244;-77
2022/11/14 00:28:48;;;;;;;76.80;38.93;;;7.20;99.90;;;;;;5047857;28;20306;-76
2022/11/14 00:31:13;;;;;;;82.30;41.70;;;7.20;99.90;;;;;;5046165;28;20226;-76
2022/11/14 00:33:39;;;;;;;79.77;39.50;;;7.20;99.90;;;;;;5048791;28;20215;-76
2022/11/14 00:36:05;;;;;;;79.67;40.03;;;7.20;99.90;;;;;;5048081;28;20204;-76
2022/11/14 00:38:30;;;;;;;76.93;37.87;;;7.20;99.90;;;;;;5045783;28;20693;-76
2022/11/14 00:40:56;;;;;;;77.67;40.20;;;7.20;99.90;;;;;;5050209;28;20293;-76
2022/11/14 00:43:21;;;;;;;81.73;38.83;;;7.20;99.90;;;;;;5051773;28;20342;-75
2022/11/14 00:45:48;;;;;;;80.53;42.07;;;7.20;99.90;;;;;;5048161;28;20238;-76
2022/11/14 00:48:15;;;;;;;77.93;40.87;;;7.10;99.90;;;;;;5050943;28;20183;-75
2022/11/14 00:50:41;;;;;;;82.87;41.73;;;7.10;99.90;;;;;;5047334;28;20595;-76
2022/11/14 00:53:07;;;;;;;82.40;41.37;;;7.10;99.90;;;;;;5043910;28;20212;-77
2022/11/14 00:55:32;;;;;;;80.77;43.23;;;7.10;99.90;;;;;;5053657;28;20219;-77
2022/11/14 00:57:58;;;;;;;87.73;39.73;;;7.10;99.90;;;;;;5043817;28;20216;-77
2022/11/14 01:00:23;;;;;;;79.30;38.93;;;7.10;99.90;;;;;;5049318;28;20208;-75
2022/11/14 01:02:49;;;;;;;83.10;41.67;;;7.10;99.90;;;;;;5048977;28;20642;-77
2022/11/14 01:05:15;;;;;;;84.37;41.17;;;7.10;99.90;;;;;;5050181;28;20220;-75
2022/11/14 01:07:40;;;;;;;81.23;40.93;;;7.10;99.90;;;;;;5048761;28;20754;-75
2022/11/14 01:10:06;;;;;;;86.03;41.57;;;7.10;99.90;;;;;;5046573;28;20261;-76
2022/11/14 01:12:33;;;;;;;89.63;42.33;;;7.00;99.90;;;;;;5043116;28;20217;-76
2022/11/14 01:14:58;;;;;;;87.47;42.90;;;7.00;99.90;;;;;;5049537;28;20202;-75
2022/11/14 01:17:27;;;;;;;83.40;42.17;;;7.00;99.90;;;;;;5047745;28;20212;-76
2022/11/14 01:19:53;;;;;;;76.93;38.90;;;7.00;99.90;;;;;;5048018;28;20216;-75
2022/11/14 01:22:19;;;;;;;88.70;42.93;;;7.00;99.90;;;;;;5048352;28;20218;-75
2022/11/14 01:24:44;;;;;;;91.70;43.37;;;7.00;99.90;;;;;;5044596;28;20298;-76
2022/11/14 01:27:10;;;;;;;87.40;43.43;;;7.00;99.90;;;;;;5049407;28;20287;-76
2022/11/14 01:29:35;;;;;;;89.87;41.27;;;7.00;99.90;;;;;;5051100;28;20226;-76
2022/11/14 01:32:01;;;;;;;89.10;42.07;;;7.00;99.90;;;;;;5048809;28;20208;-77
2022/11/14 01:34:28;;;;;;;94.17;42.07;;;7.00;99.90;;;;;;5046331;28;20705;-76
2022/11/14 01:36:54;;;;;;;91.13;44.60;;;7.00;99.90;;;;;;5046451;28;20211;-76
2022/11/14 01:39:19;;;;;;;85.77;42.47;;;7.00;99.90;;;;;;5049281;28;20183;-77
2022/11/14 01:41:45;;;;;;;86.70;42.80;;;7.00;99.90;;;;;;5051755;28;20211;-76
2022/11/14 01:44:16;;;;;;;88.80;41.97;;;7.00;99.90;;;;;;5053849;28;20658;-76
2022/11/14 01:46:46;;;;;;;89.50;42.70;;;6.90;99.90;;;;;;5046882;28;20787;-76
2022/11/14 01:49:18;;;;;;;93.97;43.50;;;6.90;99.90;;;;;;5049550;28;20609;-76
2022/11/14 01:51:45;;;;;;;92.03;42.43;;;6.90;99.90;;;;;;5045206;28;20302;-76
2022/11/14 01:54:33;;;;;;;87.20;40.80;;;6.90;99.90;;;;;;5046310;28;20188;-76
2022/11/14 01:57:01;;;;;;;89.77;40.30;;;6.90;99.90;;;;;;5061357;23;20243;-78
2022/11/14 01:59:35;;;;;;;94.10;42.33;;;6.90;99.90;;;;;;5012344;28;20709;-77
2022/11/14 02:02:17;;;;;;;89.57;42.90;;;6.90;99.90;;;;;;5028168;28;20211;-79
2022/11/14 02:04:47;;;;;;;88.20;41.90;;;6.90;99.90;;;;;;5009395;28;20342;-77
2022/11/14 02:07:14;;;;;;;101.17;45.53;;;6.90;99.90;;;;;;5016146;28;20219;-77
2022/11/14 02:09:43;;;;;;;93.10;43.73;;;6.80;99.90;;;;;;5028958;28;20208;-77
2022/11/14 02:12:12;;;;;;;98.03;43.50;;;6.80;99.90;;;;;;5023084;28;20655;-77
2022/11/14 02:14:40;;;;;;;98.57;42.53;;;6.80;99.90;;;;;;5024504;28;20183;-77
2022/11/14 02:17:06;;;;;;;95.33;43.10;;;6.80;99.90;;;;;;5027537;28;20275;-78
2022/11/14 02:19:49;;;;;;;91.57;42.13;;;6.80;99.90;;;;;;5025370;28;20214;-77
2022/11/14 02:22:15;;;;;;;96.47;42.93;;;6.80;99.90;;;;;;5030602;28;20279;-74
2022/11/14 02:24:41;;;;;;;90.93;41.13;;;6.80;99.90;;;;;;5029031;28;20305;-76
2022/11/14 02:27:09;;;;;;;94.40;43.43;;;6.80;99.90;;;;;;5023058;28;20275;-77
2022/11/14 02:29:35;;;;;;;88.90;42.17;;;6.80;99.90;;;;;;5028115;28;20212;-77
2022/11/14 02:32:01;;;;;;;92.50;42.80;;;6.80;99.90;;;;;;5023365;28;20216;-76
2022/11/14 02:34:27;;;;;;;96.27;44.33;;;6.80;99.90;;;;;;5022516;28;20291;-76
2022/11/14 02:36:53;;;;;;;102.83;44.37;;;6.80;99.90;;;;;;5023846;28;20235;-74
2022/11/14 02:39:19;;;;;;;97.80;44.20;;;6.80;99.90;;;;;;5025469;28;20179;-76
2022/11/14 02:41:44;;;;;;;92.87;42.23;;;6.80;99.90;;;;;;5035492;28;20204;-77
2022/11/14 02:44:10;;;;;;;99.50;45.20;;;6.80;99.90;;;;;;5037400;28;20619;-76
2022/11/14 02:46:35;;;;;;;97.60;43.13;;;6.80;99.90;;;;;;5033790;28;20308;-76
2022/11/14 02:49:01;;;;;;;100.73;43.47;;;6.80;99.90;;;;;;5040454;28;20223;-77
2022/11/14 02:51:27;;;;;;;99.20;44.10;;;6.80;99.90;;;;;;5038399;28;20184;-77
2022/11/14 02:53:52;;;;;;;92.27;43.17;;;6.80;99.90;;;;;;5032970;28;20212;-78
2022/11/14 02:56:18;;;;;;;96.20;42.20;;;6.90;99.90;;;;;;5028703;28;20569;-76
2022/11/14 02:58:44;;;;;;;96.47;44.17;;;6.80;99.90;;;;;;5024399;28;20224;-77
2022/11/14 03:01:10;;;;;;;92.07;45.00;;;6.90;99.90;;;;;;5021951;28;20231;-77
2022/11/14 03:03:35;;;;;;;95.70;41.37;;;6.90;99.90;;;;;;5029569;28;20265;-77
2022/11/14 03:06:02;;;;;;;93.90;42.30;;;6.90;99.90;;;;;;5022177;28;20231;-77
2022/11/14 03:08:28;;;;;;;95.57;41.60;;;6.90;99.90;;;;;;5022860;28;20216;-77
2022/11/14 03:10:54;;;;;;;90.80;41.03;;;6.80;99.90;;;;;;5023996;28;20219;-76
2022/11/14 03:13:20;;;;;;;96.07;42.43;;;6.80;99.90;;;;;;5029155;28;20227;-77
2022/11/14 03:15:46;;;;;;;90.73;41.13;;;6.80;99.90;;;;;;5026269;28;20710;-78
2022/11/14 03:18:12;;;;;;;89.13;42.13;;;6.80;99.90;;;;;;5024199;28;20197;-77
2022/11/14 03:20:38;;;;;;;85.97;40.77;;;6.80;99.90;;;;;;5025229;28;20208;-77
2022/11/14 03:23:03;;;;;;;93.60;41.37;;;6.90;99.90;;;;;;5026613;28;20201;-77
2022/11/14 03:25:29;;;;;;;93.03;40.77;;;6.80;99.90;;;;;;5029172;28;20212;-77
2022/11/14 03:27:54;;;;;;;98.90;42.53;;;6.80;99.90;;;;;;5023401;28;20208;-76
2022/11/14 03:30:27;;;;;;;92.97;40.13;;;6.80;99.90;;;;;;5029069;28;20545;-77
2022/11/14 03:32:55;;;;;;;94.07;42.60;;;6.80;99.90;;;;;;5040331;28;20184;-76
2022/11/14 03:35:21;;;;;;;89.10;39.93;;;6.80;99.90;;;;;;5023584;28;20207;-76
2022/11/14 03:37:46;;;;;;;84.47;40.30;;;6.80;99.90;;;;;;5026476;28;20219;-76
2022/11/14 03:40:12;;;;;;;92.37;39.70;;;6.80;99.90;;;;;;5023360;28;20216;-76
2022/11/14 03:42:37;;;;;;;92.93;41.60;;;6.80;99.90;;;;;;5014986;28;20689;-76
2022/11/14 03:45:03;;;;;;;97.00;42.23;;;6.80;99.90;;;;;;5024245;28;20648;-76
2022/11/14 03:47:29;;;;;;;88.13;39.43;;;6.80;99.90;;;;;;5025645;28;20219;-77
2022/11/14 03:49:55;;;;;;;89.90;39.97;;;6.80;99.90;;;;;;5023013;28;20209;-77
2022/11/14 03:52:20;;;;;;;86.23;39.50;;;6.80;99.90;;;;;;5025619;28;20683;-75
2022/11/14 03:54:46;;;;;;;98.30;42.13;;;6.70;99.90;;;;;;5019235;28;20299;-76
2022/11/14 03:57:11;;;;;;;95.77;41.70;;;6.80;99.90;;;;;;5028538;28;21566;-77
2022/11/14 03:59:37;;;;;;;90.10;40.03;;;6.70;99.90;;;;;;5024265;28;20172;-77
2022/11/14 04:02:03;;;;;;;94.13;39.73;;;6.70;99.90;;;;;;5032015;28;20212;-75
2022/11/14 04:04:28;;;;;;;85.37;39.20;;;6.70;99.90;;;;;;5031201;28;20216;-76
2022/11/14 04:06:54;;;;;;;92.00;41.50;;;6.70;99.90;;;;;;5030647;28;20216;-76
2022/11/14 04:09:19;;;;;;;96.53;41.70;;;6.70;99.90;;;;;;5032115;28;20659;-77
2022/11/14 04:11:45;;;;;;;91.73;41.23;;;6.70;99.90;;;;;;5028546;28;20220;-76
2022/11/14 04:14:11;;;;;;;99.77;42.70;;;6.60;99.90;;;;;;5026012;28;20217;-76
2022/11/14 04:16:36;;;;;;;93.33;42.03;;;6.60;99.90;;;;;;5028811;28;20211;-77
2022/11/14 04:19:02;;;;;;;100.23;42.03;;;6.60;99.90;;;;;;5030069;28;20633;-76
2022/11/14 04:21:27;;;;;;;91.53;41.23;;;6.60;99.90;;;;;;5027320;28;20223;-76
2022/11/14 04:23:53;;;;;;;93.70;40.27;;;6.60;99.90;;;;;;5028469;28;20256;-75
2022/11/14 04:26:18;;;;;;;96.73;42.33;;;6.60;99.90;;;;;;5031408;28;20575;-76
2022/11/14 04:28:44;;;;;;;93.87;40.63;;;6.50;99.90;;;;;;5025692;28;20224;-76
2022/11/14 04:31:10;;;;;;;93.57;40.97;;;6.50;99.90;;;;;;5029577;28;20718;-76
2022/11/14 04:33:35;;;;;;;94.83;40.17;;;6.50;99.90;;;;;;5025074;28;20266;-79
2022/11/14 04:36:01;;;;;;;101.83;41.53;;;6.50;99.90;;;;;;5025546;28;20585;-76
2022/11/14 04:38:26;;;;;;;95.17;40.63;;;6.50;99.90;;;;;;5030152;28;20216;-76
2022/11/14 04:40:53;;;;;;;96.97;42.43;;;6.40;99.90;;;;;;5023761;28;20213;-76
2022/11/14 04:43:19;;;;;;;98.50;42.33;;;6.40;99.90;;;;;;5031725;28;20247;-76
2022/11/14 04:45:45;;;;;;;102.07;41.77;;;6.40;99.90;;;;;;5028058;28;20234;-76
2022/11/14 04:48:12;;;;;;;100.07;42.47;;;6.40;99.90;;;;;;5028632;28;20201;-76
2022/11/14 04:50:37;;;;;;;101.77;40.70;;;6.40;99.90;;;;;;5031624;28;20194;-77
2022/11/14 04:53:04;;;;;;;97.60;41.13;;;6.40;99.90;;;;;;5026513;28;20217;-77
2022/11/14 04:55:29;;;;;;;94.77;42.80;;;6.40;99.90;;;;;;5024735;28;20239;-76
2022/11/14 04:57:56;;;;;;;98.13;41.90;;;6.40;99.90;;;;;;5027243;28;20771;-77
2022/11/14 05:00:23;;;;;;;98.87;42.50;;;6.40;99.90;;;;;;5031091;28;20226;-76
2022/11/14 05:02:49;;;;;;;104.93;43.60;;;6.40;99.90;;;;;;5029282;28;20189;-76
2022/11/14 05:05:14;;;;;;;102.07;42.70;;;6.40;99.90;;;;;;5028048;28;20296;-75
2022/11/14 05:07:40;;;;;;;99.10;40.63;;;6.40;99.90;;;;;;5021633;28;20249;-77
2022/11/14 05:10:07;;;;;;;95.77;41.83;;;6.30;99.90;;;;;;5026951;28;20299;-77
2022/11/14 05:12:32;;;;;;;106.13;41.80;;;6.40;99.90;;;;;;5029506;28;20216;-77
2022/11/14 05:14:58;;;;;;;100.90;41.30;;;6.30;99.90;;;;;;5023712;28;20192;-77
2022/11/14 05:17:24;;;;;;;105.20;42.43;;;6.30;99.90;;;;;;5020153;28;20240;-78
2022/11/14 05:19:49;;;;;;;105.23;43.33;;;6.30;99.90;;;;;;5026360;28;20216;-77
2022/11/14 05:22:15;;;;;;;105.47;44.07;;;6.30;99.90;;;;;;5028711;28;20227;-76
2022/11/14 05:24:41;;;;;;;102.23;43.30;;;6.40;99.90;;;;;;5030750;28;20219;-78
2022/11/14 05:27:07;;;;;;;92.57;42.10;;;6.40;99.90;;;;;;5026139;28;20205;-78
2022/11/14 05:29:32;;;;;;;98.70;42.30;;;6.40;99.90;;;;;;5019048;28;20208;-78
2022/11/14 05:31:59;;;;;;;100.77;43.17;;;6.30;99.90;;;;;;5029047;28;20220;-77
2022/11/14 05:34:25;;;;;;;99.70;42.80;;;6.30;99.90;;;;;;5031589;28;20208;-77
2022/11/14 05:36:50;;;;;;;98.03;41.40;;;6.30;99.90;;;;;;5024832;28;20597;-77
2022/11/14 05:39:16;;;;;;;97.87;41.60;;;6.30;99.90;;;;;;5030184;28;20180;-78
2022/11/14 05:41:42;;;;;;;104.43;43.27;;;6.30;99.90;;;;;;5024558;28;20214;-76
2022/11/14 05:44:07;;;;;;;105.23;43.60;;;6.30;99.90;;;;;;5024074;28;20240;-77
2022/11/14 05:46:33;;;;;;;95.60;39.60;;;6.30;99.90;;;;;;5023654;28;20691;-78
2022/11/14 05:48:59;;;;;;;103.40;42.70;;;6.30;99.90;;;;;;5024629;28;20254;-78
2022/11/14 05:51:24;;;;;;;99.77;42.37;;;6.30;99.90;;;;;;5017158;28;20230;-76
2022/11/14 05:53:50;;;;;;;110.27;42.17;;;6.30;99.90;;;;;;5023554;28;20195;-77
2022/11/14 05:56:15;;;;;;;107.43;44.03;;;6.30;99.90;;;;;;5024341;28;20208;-76
2022/11/14 05:58:41;;;;;;;108.63;42.60;;;6.40;99.90;;;;;;5020932;28;20224;-77
2022/11/14 06:01:11;;;;;;;106.03;44.00;;;6.40;99.90;;;;;;5019457;28;20434;-77
2022/11/14 06:03:39;;;;;;;113.57;44.63;;;6.40;99.90;;;;;;5023455;28;20299;-77
2022/11/14 06:06:06;;;;;;;100.13;42.60;;;6.40;99.90;;;;;;5025275;28;20181;-77
2022/11/14 06:08:33;;;;;;;96.80;42.40;;;6.40;99.90;;;;;;5020646;28;20216;-77
2022/11/14 06:11:18;;;;;;;95.47;42.27;;;6.40;99.90;;;;;;5024412;28;20228;-77
2022/11/14 06:13:44;;;;;;;107.17;41.97;;;6.40;99.90;;;;;;5023324;28;20212;-76
2022/11/14 06:16:13;;;;;;;94.23;40.97;;;6.40;99.90;;;;;;5021479;28;20219;-76
2022/11/14 06:18:39;;;;;;;104.53;43.80;;;6.40;99.90;;;;;;5015688;28;20217;-77
2022/11/14 06:21:09;;;;;;;103.03;41.17;;;6.40;99.90;;;;;;5024910;28;20208;-77
2022/11/14 06:23:34;;;;;;;95.90;39.10;;;6.40;99.90;;;;;;5020048;28;20694;-77
2022/11/14 06:26:02;;;;;;;102.87;41.73;;;6.40;99.90;;;;;;5020625;28;20221;-77
2022/11/14 06:28:28;;;;;;;96.50;42.43;;;6.40;99.90;;;;;;5019336;28;20220;-78
2022/11/14 06:31:01;;;;;;;97.77;41.50;;;6.40;99.90;;;;;;5023119;28;20212;-78
2022/11/14 06:33:28;;;;;;;96.37;40.60;;;6.40;99.90;;;;;;5027713;28;20647;-76
2022/11/14 06:36:05;;;;;;;99.03;40.93;;;6.40;99.90;;;;;;5019894;28;20189;-78
2022/11/14 06:38:32;;;;;;;97.40;41.50;;;6.40;99.90;;;;;;5016272;28;20219;-77
2022/11/14 06:41:05;;;;;;;106.77;43.47;;;6.40;99.90;;;;;;5018847;28;20220;-77
2022/11/14 06:43:32;;;;;;;98.63;42.17;;;6.40;99.90;;;;;;5017321;28;20240;-77
2022/11/14 06:45:58;;;;;;;97.77;41.90;;;6.30;99.90;;;;;;5027767;28;20686;-77
2022/11/14 06:48:24;;;;;;;97.73;39.37;;;6.40;99.90;;;;;;5022338;28;20303;-77
2022/11/14 06:50:54;;;;;;;103.87;42.60;;;6.40;99.90;;;;;;5024270;28;20179;-77
2022/11/14 06:53:19;;;;;;;98.17;41.07;;;6.40;99.90;;;;;;5016735;28;20220;-77
2022/11/14 06:55:56;;;;;;;95.73;40.50;;;6.40;99.90;;;;;;5022111;28;20235;-77
2022/11/14 06:58:21;;;;;;;93.53;40.33;;;6.40;99.90;;;;;;5024988;28;20231;-76
2022/11/14 07:00:47;;;;;;;99.93;42.30;;;6.50;99.90;;;;;;5023123;28;20220;-77
2022/11/14 07:03:12;;;;;;;90.90;39.07;;;6.50;99.90;;;;;;5026999;28;20551;-77
2022/11/14 07:05:38;;;;;;;93.13;40.43;;;6.60;99.90;;;;;;5026058;28;20270;-78
2022/11/14 07:08:04;;;;;;;93.47;38.47;;;6.70;99.90;;;;;;5021938;28;20243;-77
2022/11/14 07:10:29;;;;;;;92.77;40.13;;;6.70;99.90;;;;;;5026857;28;20208;-77
2022/11/14 07:12:55;;;;;;;93.10;37.13;;;6.80;99.90;;;;;;5019112;28;20259;-77
2022/11/14 07:15:21;;;;;;;87.30;40.57;;;6.70;99.90;;;;;;5019518;28;20188;-77
2022/11/14 07:17:47;;;;;;;93.57;40.50;;;6.70;99.90;;;;;;5019758;28;20197;-77
2022/11/14 07:20:14;;;;;;;97.27;39.97;;;6.70;99.90;;;;;;5027867;28;20593;-76
2022/11/14 07:22:39;;;;;;;92.90;40.50;;;6.70;99.90;;;;;;5024717;28;20274;-77
2022/11/14 07:25:05;;;;;;;96.70;40.87;;;6.60;99.90;;;;;;5028063;28;20220;-77
2022/11/14 07:27:31;;;;;;;93.73;37.83;;;6.60;99.90;;;;;;5019958;28;20296;-76
2022/11/14 07:29:57;;;;;;;90.63;39.40;;;6.60;99.90;;;;;;5023753;28;20212;-77
2022/11/14 07:32:22;;;;;;;99.40;41.37;;;6.60;99.90;;;;;;5028962;28;20640;-77
2022/11/14 07:34:48;;;;;;;90.43;38.63;;;6.90;99.90;;;;;;5026940;28;20597;-76
2022/11/14 07:37:13;;;;;;;87.77;38.53;;;7.30;99.90;;;;;;5021848;28;20215;-77
2022/11/14 07:39:39;;;;;;;88.93;37.13;;;7.40;99.90;;;;;;5027947;28;20211;-76
2022/11/14 07:42:05;;;;;;;91.70;37.53;;;7.90;99.90;;;;;;5027956;28;20204;-77
2022/11/14 07:44:30;;;;;;;82.67;35.40;;;8.20;99.90;;;;;;5023329;28;20756;-77
2022/11/14 07:46:56;;;;;;;75.90;35.40;;;8.70;99.90;;;;;;5028836;28;20212;-76
2022/11/14 07:49:21;;;;;;;73.60;33.93;;;9.30;99.90;;;;;;5025446;28;20220;-75
2022/11/14 07:51:47;;;;;;;83.20;36.40;;;9.60;99.90;;;;;;5029050;28;20912;-77
2022/11/14 07:54:13;;;;;;;78.00;32.33;;;9.60;99.90;;;;;;5026475;28;20181;-76
2022/11/14 07:56:38;;;;;;;73.17;34.33;;;9.40;99.90;;;;;;5028391;28;20187;-77
2022/11/14 07:59:04;;;;;;;79.73;35.40;;;8.90;99.90;;;;;;5025419;28;20310;-77
2022/11/14 08:01:30;;;;;;;75.87;32.63;;;8.40;99.90;;;;;;5033036;23;20681;-77
2022/11/14 08:03:55;;;;;;;81.13;35.63;;;8.10;99.90;;;;;;4992594;28;20267;-77
2022/11/14 08:06:21;;;;;;;76.47;34.60;;;8.10;99.90;;;;;;4995647;28;20178;-76
2022/11/14 08:08:46;;;;;;;75.47;34.63;;;8.00;99.90;;;;;;4996787;28;20180;-79
2022/11/14 08:11:12;;;;;;;79.93;33.33;;;8.30;99.90;;;;;;4995564;28;20221;-79
2022/11/14 08:13:38;;;;;;;72.40;33.83;;;8.40;99.90;;;;;;4996667;28;20248;-79
2022/11/14 08:16:05;;;;;;;75.67;34.03;;;8.60;99.90;;;;;;4994186;28;20218;-77
2022/11/14 08:18:30;;;;;;;81.37;36.13;;;8.60;99.90;;;;;;4993835;28;20210;-79
2022/11/14 08:20:56;;;;;;;76.80;35.43;;;8.30;99.90;;;;;;4996097;28;20256;-79
2022/11/14 08:23:22;;;;;;;81.97;36.83;;;8.20;99.90;;;;;;4997519;28;20271;-79
2022/11/14 08:25:48;;;;;;;75.83;36.07;;;7.90;99.90;;;;;;4995072;28;20217;-76
2022/11/14 08:28:13;;;;;;;75.20;35.57;;;8.20;99.90;;;;;;4992207;28;20201;-77
2022/11/14 08:30:39;;;;;;;75.80;34.43;;;8.20;99.90;;;;;;4993472;28;20216;-75
2022/11/14 08:33:05;;;;;;;78.87;33.80;;;8.50;99.90;;;;;;4994155;28;20683;-77
2022/11/14 08:35:32;;;;;;;78.33;34.70;;;8.60;99.90;;;;;;5011470;28;20206;-78
2022/11/14 08:38:02;;;;;;;77.43;34.33;;;8.80;99.90;;;;;;4993929;28;20205;-78
2022/11/14 08:40:29;;;;;;;72.90;33.77;;;8.60;99.90;;;;;;4995276;28;20264;-78
2022/11/14 08:43:01;;;;;;;106.70;51.47;;;8.80;99.90;;;;;;4995609;28;20213;-79
2022/11/14 08:45:28;;;;;;;85.67;39.50;;;8.90;99.90;;;;;;4991572;28;20173;-79
2022/11/14 08:47:54;;;;;;;74.43;33.33;;;8.90;99.90;;;;;;4995066;28;20189;-78
2022/11/14 08:50:20;;;;;;;82.17;33.13;;;8.60;99.90;;;;;;4993001;28;20696;-78
2022/11/14 08:52:50;;;;;;;76.30;32.57;;;8.40;99.90;;;;;;4992127;28;20234;-77
2022/11/14 08:55:16;;;;;;;77.30;32.57;;;8.20;99.90;;;;;;4993068;28;20696;-77
2022/11/14 08:57:42;;;;;;;76.50;32.97;;;8.50;99.90;;;;;;4993333;28;20212;-78
2022/11/14 09:00:08;;;;;;;73.07;33.00;;;8.40;99.90;;;;;;4993307;28;20623;-78
2022/11/14 09:02:34;;;;;;;79.47;35.10;;;8.50;99.90;;;;;;4993455;28;20841;-78
2022/11/14 09:04:59;;;;;;;75.90;32.23;;;8.40;99.90;;;;;;5001638;28;20221;-77
2022/11/14 09:07:25;;;;;;;77.37;32.53;;;8.60;99.90;;;;;;4993124;28;20297;-78
2022/11/14 09:09:51;;;;;;;76.53;34.97;;;8.50;99.90;;;;;;4992835;28;20216;-77
2022/11/14 09:12:16;;;;;;;76.20;33.93;;;8.60;99.90;;;;;;4992692;28;20212;-77
2022/11/14 09:14:42;;;;;;;76.17;33.43;;;8.80;99.90;;;;;;4993553;28;20182;-76
2022/11/14 09:17:08;;;;;;;77.30;32.77;;;8.80;99.90;;;;;;4999285;28;20288;-78
2022/11/14 09:19:33;;;;;;;69.30;32.77;;;8.80;99.90;;;;;;4992782;28;20267;-78
2022/11/14 09:21:59;;;;;;;76.63;33.30;;;8.80;99.90;;;;;;4992339;28;20724;-78
2022/11/14 09:24:25;;;;;;;69.00;30.80;;;8.90;99.90;;;;;;4992985;28;20237;-78
2022/11/14 09:26:51;;;;;;;69.73;31.07;;;8.90;99.90;;;;;;5001288;28;20602;-78
2022/11/14 09:29:17;;;;;;;67.13;30.90;;;9.10;99.90;;;;;;4990789;28;20211;-76
2022/11/14 09:31:43;;;;;;;71.47;30.50;;;9.20;99.90;;;;;;4992418;28;20217;-78
2022/11/14 09:34:09;;;;;;;66.67;30.50;;;9.00;99.90;;;;;;4992970;28;20260;-77
2022/11/14 09:36:35;;;;;;;64.37;31.20;;;9.20;99.90;;;;;;4994095;28;20237;-79
2022/11/14 09:39:00;;;;;;;65.10;29.87;;;9.10;99.90;;;;;;4995834;28;20241;-77
2022/11/14 09:41:56;;;;;;;68.90;30.90;;;9.20;99.90;;;;;;4995594;28;20213;-79
2022/11/14 09:44:28;;;;;;;60.93;28.93;;;9.20;99.90;;;;;;4994660;28;20206;-79
2022/11/14 09:47:06;;;;;;;63.37;30.20;;;9.40;99.90;;;;;;5004916;28;20211;-79
2022/11/14 09:49:38;;;;;;;63.77;29.90;;;9.40;99.90;;;;;;5010243;28;20205;-79
2022/11/14 09:52:19;;;;;;;59.33;28.70;;;9.60;99.90;;;;;;4994901;28;20213;-79
2022/11/14 09:55:09;;;;;;;57.60;27.17;;;9.70;99.90;;;;;;4993305;28;20205;-79
2022/11/14 09:57:35;;;;;;;58.47;28.47;;;9.50;99.90;;;;;;4986295;28;20214;-78
2022/11/14 10:00:00;;;;;;;59.70;28.93;;;9.70;99.90;;;;;;4995130;28;20225;-79
2022/11/14 10:02:32;;;;;;;58.57;28.60;;;9.90;99.90;;;;;;4994480;28;20248;-79
2022/11/14 10:05:13;;;;;;;62.17;29.63;;;9.90;99.90;;;;;;4994663;28;20229;-79
2022/11/14 10:07:53;;;;;;;62.57;30.40;;;10.00;99.90;;;;;;4994511;28;20233;-79
2022/11/14 10:10:33;;;;;;;63.70;28.90;;;10.10;99.90;;;;;;5007230;28;20216;-79
2022/11/14 10:13:17;;;;;;;64.60;31.03;;;10.40;99.90;;;;;;4991533;28;20245;-78
2022/11/14 10:15:52;;;;;;;63.13;29.63;;;10.30;99.90;;;;;;5005986;28;20245;-79
2022/11/14 10:18:53;;;;;;;65.17;29.00;;;10.30;99.90;;;;;;4992851;28;20181;-78
2022/11/14 10:22:00;;;;;;;57.77;27.37;;;10.40;99.90;;;;;;4989115;28;20202;-79
2022/11/14 10:24:44;;;;;;;59.73;27.87;;;10.40;99.90;;;;;;4993091;28;20535;-79
2022/11/14 10:27:21;;;;;;;61.93;28.33;;;10.60;99.90;;;;;;4988428;28;20189;-79
2022/11/14 10:29:49;;;;;;;56.23;28.67;;;10.40;99.90;;;;;;4994523;28;20289;-79
2022/11/14 10:32:55;;;;;;;58.27;27.33;;;10.30;99.90;;;;;;4998991;28;20214;-76
2022/11/14 10:35:45;;;;;;;55.00;27.33;;;10.00;99.90;;;;;;4988509;28;20202;-78
2022/11/14 10:38:34;;;;;;;61.47;28.77;;;10.20;99.90;;;;;;4990669;28;20704;-79
2022/11/14 10:41:05;;;;;;;55.87;27.63;;;10.20;99.90;;;;;;4988559;28;20308;-78
2022/11/14 10:43:48;;;;;;;58.97;28.73;;;10.10;99.90;;;;;;4991026;28;20253;-78
2022/11/14 10:46:27;;;;;;;55.27;27.43;;;10.10;99.90;;;;;;4990699;28;20205;-76
2022/11/14 10:48:53;;;;;;;57.70;27.80;;;10.40;99.90;;;;;;4988478;28;20209;-77
2022/11/14 10:51:48;;;;;;;53.27;27.27;;;10.50;99.90;;;;;;4990879;28;20289;-78
2022/11/14 10:54:21;;;;;;;53.53;27.23;;;10.40;99.90;;;;;;5003800;28;20679;-78
2022/11/14 10:56:47;;;;;;;50.03;27.20;;;10.50;99.90;;;;;;4989062;28;20564;-78
2022/11/14 10:59:13;;;;;;;56.43;27.30;;;10.80;99.90;;;;;;4990783;28;20217;-78
2022/11/14 11:01:42;;;;;;;56.30;27.20;;;10.60;99.90;;;;;;4989472;28;20225;-78
2022/11/14 11:04:24;;;;;;;62.60;28.50;;;10.70;99.90;;;;;;4989469;28;20213;-78
2022/11/14 11:06:52;;;;;;;54.27;25.63;;;10.80;99.90;;;;;;4991038;28;20233;-78
2022/11/14 11:12:16;;;;;;;51.90;26.63;;;10.50;99.90;;;;;;4990095;28;20755;-77
2022/11/14 11:14:44;;;;;;;57.77;27.67;;;10.40;99.90;;;;;;4991380;28;20185;-79
2022/11/14 11:17:14;;;;;;;55.83;27.10;;;10.50;99.90;;;;;;4989835;28;20584;-79
2022/11/14 11:19:41;;;;;;;55.63;28.03;;;10.50;99.90;;;;;;4989304;28;20217;-78
2022/11/14 11:22:27;;;;;;;53.37;27.70;;;10.50;99.90;;;;;;4997325;28;20218;-79
2022/11/14 11:24:52;;;;;;;51.03;26.17;;;10.70;99.90;;;;;;4989023;28;20228;-76
2022/11/14 11:27:21;;;;;;;55.37;28.30;;;10.70;99.90;;;;;;4991081;28;20264;-77
2022/11/14 11:30:01;;;;;;;50.53;26.10;;;10.70;99.90;;;;;;4998841;28;20185;-79
2022/11/14 11:32:27;;;;;;;48.77;26.80;;;10.70;99.90;;;;;;5003399;28;20219;-78
2022/11/14 11:34:53;;;;;;;47.47;26.73;;;10.70;99.90;;;;;;4998666;28;20659;-76
2022/11/14 11:37:53;;;;;;;51.20;25.47;;;10.60;99.90;;;;;;4990617;28;20208;-78
2022/11/14 11:40:24;;;;;;;51.40;25.33;;;10.60;99.90;;;;;;5000913;28;20222;-78
2022/11/14 11:43:08;;;;;;;47.77;25.50;;;10.70;99.90;;;;;;4985975;28;20767;-78
2022/11/14 11:45:35;;;;;;;46.73;26.07;;;10.80;99.90;;;;;;4986990;28;20201;-78
2022/11/14 11:48:36;;;;;;;48.17;25.70;;;10.90;99.90;;;;;;4997872;28;20176;-79
2022/11/14 11:51:03;;;;;;;51.90;25.17;;;11.00;99.90;;;;;;4989919;28;20216;-78
2022/11/14 11:53:38;;;;;;;46.57;24.27;;;11.00;99.90;;;;;;4987073;28;20615;-79
2022/11/14 11:56:28;;;;;;;49.17;24.53;;;11.10;99.90;;;;;;4990462;28;20216;-79
2022/11/14 11:59:06;;;;;;;45.67;23.77;;;11.00;99.90;;;;;;4989165;28;20216;-78
2022/11/14 12:01:31;;;;;;;46.37;24.87;;;11.00;99.90;;;;;;4987548;28;20224;-78
2022/11/14 12:03:59;;;;;;;44.67;24.77;;;10.90;99.90;;;;;;4990125;28;20217;-79
2022/11/14 12:06:28;;;;;;;47.10;24.10;;;10.90;99.90;;;;;;4990776;28;20178;-78
2022/11/14 12:08:56;;;;;;;45.70;24.23;;;10.90;99.90;;;;;;4990665;28;20170;-77
2022/11/14 12:11:25;;;;;;;42.90;24.03;;;10.90;99.90;;;;;;4989324;28;20712;-78
2022/11/14 12:14:25;;;;;;;40.40;23.13;;;11.00;99.90;;;;;;4990482;28;20210;-78
2022/11/14 12:17:10;;;;;;;41.50;22.77;;;11.10;99.90;;;;;;5002805;28;20232;-79
2022/11/14 12:19:44;;;;;;;42.93;23.17;;;11.20;99.90;;;;;;5005464;28;20280;-79
2022/11/14 12:22:47;;;;;;;40.87;22.43;;;11.10;99.90;;;;;;4993893;28;20216;-78
2022/11/14 12:25:37;;;;;;;46.77;23.97;;;11.10;99.90;;;;;;5008132;28;20228;-78
2022/11/14 12:28:30;;;;;;;39.80;22.80;;;11.10;99.90;;;;;;4992015;28;20217;-79
2022/11/14 12:31:00;;;;;;;39.90;22.93;;;11.10;99.90;;;;;;4991853;28;20206;-78
2022/11/14 12:33:30;;;;;;;41.60;22.07;;;11.00;99.90;;;;;;5009180;28;20189;-79
2022/11/14 12:36:02;;;;;;;39.57;22.23;;;11.10;99.90;;;;;;5002004;28;20650;-78
2022/11/14 12:38:39;;;;;;;40.90;22.87;;;11.10;99.90;;;;;;5008801;28;20255;-79
2022/11/14 12:41:06;;;;;;;43.63;23.03;;;11.20;99.90;;;;;;4991821;28;20747;-78
2022/11/14 12:43:41;;;;;;;39.67;22.53;;;11.10;99.90;;;;;;4993612;28;20629;-79
2022/11/14 12:46:12;;;;;;;35.83;21.70;;;11.20;99.90;;;;;;5007007;28;20244;-78